Time;durP1;ratioP1;P1;durP2;ratioP2;P2;SDS_P1;SDS_P2;PMS_P1;PMS_P2;Temp;Humidity;BMP_temperature;BMP_pressure;BME280_temperature;BME280_humidity;BME280_pressure;Samples;Min_cycle;Max_cycle;Signal;HPM_P1;HPM_P2
2021/01/09 00:01:39;;;;;;;7.03;3.60;;;-0.70;99.90;;;;;;5030859;28;20033;-59
2021/01/09 00:04:05;;;;;;;7.82;3.60;;;-0.70;99.90;;;;;;5019476;28;20044;-58
2021/01/09 00:06:35;;;;;;;7.68;3.70;;;-0.70;99.90;;;;;;5030463;28;20385;-59
2021/01/09 00:09:01;;;;;;;8.23;3.38;;;-0.80;99.90;;;;;;5012824;28;20553;-59
2021/01/09 00:11:31;;;;;;;11.93;4.07;;;-0.80;99.90;;;;;;5022650;28;20120;-59
2021/01/09 00:13:57;;;;;;;18.55;6.03;;;-0.90;99.90;;;;;;5023424;28;20033;-59
2021/01/09 00:16:23;;;;;;;16.60;6.85;;;-0.90;99.90;;;;;;5027917;28;20037;-59
2021/01/09 00:18:50;;;;;;;15.80;6.40;;;-1.00;99.90;;;;;;5019654;28;20033;-59
2021/01/09 00:21:16;;;;;;;15.40;5.38;;;-1.00;99.90;;;;;;5018583;28;20531;-59
2021/01/09 00:23:42;;;;;;;12.25;4.93;;;-0.80;99.90;;;;;;5025032;28;20041;-59
2021/01/09 00:26:08;;;;;;;12.35;5.25;;;-0.80;99.90;;;;;;5029842;28;20140;-59
2021/01/09 00:28:33;;;;;;;15.50;5.38;;;-0.90;99.90;;;;;;5020092;28;20030;-59
2021/01/09 00:30:59;;;;;;;13.32;4.75;;;-1.00;99.90;;;;;;5010212;28;20045;-59
2021/01/09 00:33:28;;;;;;;12.70;5.50;;;-1.00;99.90;;;;;;5011825;28;20040;-59
2021/01/09 00:35:56;;;;;;;10.35;5.35;;;-1.00;99.90;;;;;;5020431;28;20029;-60
2021/01/09 00:38:23;;;;;;;13.63;5.53;;;-1.10;99.90;;;;;;5025206;28;20038;-60
2021/01/09 00:40:49;;;;;;;10.32;5.03;;;-1.20;99.90;;;;;;5027992;28;20076;-59
2021/01/09 00:43:15;;;;;;;10.15;4.75;;;-1.20;99.90;;;;;;5025760;28;20127;-59
2021/01/09 00:45:41;;;;;;;11.75;4.20;;;-1.20;99.90;;;;;;5010398;28;20033;-59
2021/01/09 00:48:07;;;;;;;12.40;3.85;;;-1.20;99.90;;;;;;5023390;28;20048;-60
2021/01/09 00:50:35;;;;;;;9.35;4.75;;;-1.20;99.90;;;;;;5029178;28;20057;-59
2021/01/09 00:53:01;;;;;;;11.75;5.45;;;-1.20;99.90;;;;;;5027538;28;20033;-59
2021/01/09 00:55:27;;;;;;;8.95;4.05;;;-1.20;99.90;;;;;;5023660;28;20037;-59
2021/01/09 00:57:53;;;;;;;9.18;4.03;;;-1.20;99.90;;;;;;5025269;28;20492;-59
2021/01/09 01:00:19;;;;;;;10.07;4.65;;;-1.20;99.90;;;;;;5009688;28;20044;-58
2021/01/09 01:02:47;;;;;;;8.70;3.70;;;-1.20;99.90;;;;;;5027993;28;20046;-59
2021/01/09 01:05:13;;;;;;;8.23;3.75;;;-1.20;99.90;;;;;;5027811;28;20380;-59
2021/01/09 01:07:39;;;;;;;7.43;3.58;;;-1.30;99.90;;;;;;5019794;28;20038;-59
2021/01/09 01:10:07;;;;;;;9.75;4.07;;;-1.20;99.90;;;;;;5022591;28;20041;-59
2021/01/09 01:12:32;;;;;;;10.25;3.78;;;-1.00;99.90;;;;;;5027278;28;20041;-59
2021/01/09 01:14:58;;;;;;;7.60;3.22;;;-1.10;99.90;;;;;;5025986;28;20414;-59
2021/01/09 01:17:27;;;;;;;7.95;3.75;;;-1.20;99.90;;;;;;5028950;28;20033;-59
2021/01/09 01:19:53;;;;;;;7.38;3.97;;;-1.30;99.90;;;;;;5018386;28;20521;-59
2021/01/09 01:22:19;;;;;;;8.48;3.90;;;-1.20;99.90;;;;;;5020430;28;20117;-58
2021/01/09 01:24:47;;;;;;;7.47;3.33;;;-1.30;99.90;;;;;;5009482;28;20231;-60
2021/01/09 01:27:13;;;;;;;8.80;3.88;;;-1.20;99.90;;;;;;5028593;28;20037;-59
2021/01/09 01:29:39;;;;;;;5.07;2.80;;;-1.10;99.90;;;;;;5029115;28;20393;-59
2021/01/09 01:32:05;;;;;;;6.70;3.08;;;-1.00;99.90;;;;;;5028709;28;20614;-59
2021/01/09 01:34:30;;;;;;;7.68;3.65;;;-1.10;99.90;;;;;;5028101;28;20486;-59
2021/01/09 01:36:56;;;;;;;6.28;3.55;;;-1.10;99.90;;;;;;5025336;28;20084;-59
2021/01/09 01:39:25;;;;;;;8.10;3.80;;;-1.20;99.90;;;;;;5020337;28;20041;-58
2021/01/09 01:41:54;;;;;;;8.57;4.00;;;-1.20;99.90;;;;;;5016598;28;20393;-59
2021/01/09 01:44:19;;;;;;;8.88;4.03;;;-1.20;99.90;;;;;;5024940;28;20045;-59
2021/01/09 01:46:45;;;;;;;11.55;4.95;;;-1.30;99.90;;;;;;5024141;28;20038;-58
2021/01/09 01:49:11;;;;;;;12.18;4.97;;;-1.30;99.90;;;;;;5016978;28;20382;-58
2021/01/09 01:51:37;;;;;;;11.98;5.88;;;-1.30;99.90;;;;;;5010101;28;20128;-57
2021/01/09 01:54:12;;;;;;;12.48;5.15;;;-1.40;99.90;;;;;;5007624;28;20030;-58
2021/01/09 01:56:37;;;;;;;10.63;4.40;;;-1.40;99.90;;;;;;5010808;28;20416;-58
2021/01/09 01:59:03;;;;;;;12.43;5.63;;;-1.40;99.90;;;;;;5014228;28;20108;-55
2021/01/09 02:01:32;;;;;;;14.55;6.30;;;-1.60;99.90;;;;;;5026739;28;20030;-57
2021/01/09 02:03:57;;;;;;;16.35;6.13;;;-1.60;99.90;;;;;;5023988;28;20160;-57
2021/01/09 02:06:28;;;;;;;12.27;5.32;;;-1.50;99.90;;;;;;5013015;28;20482;-58
2021/01/09 02:09:07;;;;;;;11.70;5.38;;;-1.50;99.90;;;;;;5026706;28;20076;-58
2021/01/09 02:11:52;;;;;;;10.77;5.05;;;-1.50;99.90;;;;;;5027223;28;20072;-57
2021/01/09 02:14:39;;;;;;;12.68;5.07;;;-1.40;99.90;;;;;;5024179;28;20060;-58
2021/01/09 02:17:08;;;;;;;10.15;4.00;;;-1.40;99.90;;;;;;5028717;28;20032;-58
2021/01/09 02:19:39;;;;;;;9.18;4.38;;;-1.50;99.90;;;;;;5026537;28;20037;-57
2021/01/09 02:22:10;;;;;;;11.85;5.90;;;-1.50;99.90;;;;;;5026266;28;20038;-58
2021/01/09 02:24:35;;;;;;;10.70;4.97;;;-1.60;99.90;;;;;;5028131;28;20041;-58
2021/01/09 02:27:09;;;;;;;10.27;4.57;;;-1.70;99.90;;;;;;5009955;28;20046;-57
2021/01/09 02:29:39;;;;;;;10.05;4.68;;;-1.70;99.90;;;;;;5018182;28;20091;-58
2021/01/09 02:32:09;;;;;;;10.32;3.92;;;-1.70;99.90;;;;;;5028292;28;20227;-58
2021/01/09 02:34:43;;;;;;;10.63;4.88;;;-1.70;99.90;;;;;;5026370;28;20208;-57
2021/01/09 02:37:09;;;;;;;9.90;3.92;;;-1.60;99.90;;;;;;5032242;28;20045;-58
2021/01/09 02:39:36;;;;;;;9.52;3.92;;;-1.60;99.90;;;;;;5022201;28;20037;-58
2021/01/09 02:42:03;;;;;;;10.50;4.57;;;-1.60;99.90;;;;;;5027606;28;20509;-58
2021/01/09 02:44:30;;;;;;;12.07;4.53;;;-1.70;99.90;;;;;;5030339;28;20051;-58
2021/01/09 02:46:56;;;;;;;7.55;3.80;;;-1.70;99.90;;;;;;5017886;28;20037;-58
2021/01/09 02:49:22;;;;;;;10.68;4.85;;;-1.70;99.90;;;;;;5012959;28;20032;-58
2021/01/09 02:51:47;;;;;;;8.70;3.67;;;-1.70;99.90;;;;;;5012455;28;20034;-58
2021/01/09 02:54:13;;;;;;;10.27;3.72;;;-1.70;99.90;;;;;;5019952;28;20490;-58
2021/01/09 02:56:39;;;;;;;7.70;3.58;;;-1.70;99.90;;;;;;5029189;28;20041;-58
2021/01/09 02:59:05;;;;;;;7.53;3.58;;;-1.70;99.90;;;;;;5031303;28;20144;-57
2021/01/09 03:01:31;;;;;;;9.27;3.78;;;-1.70;99.90;;;;;;5028328;28;20040;-58
2021/01/09 03:03:58;;;;;;;7.15;3.30;;;-1.70;99.90;;;;;;5012092;28;20040;-57
2021/01/09 03:06:25;;;;;;;7.50;4.13;;;-1.70;99.90;;;;;;5024262;28;20065;-57
2021/01/09 03:08:51;;;;;;;7.75;3.45;;;-1.70;99.90;;;;;;5026621;28;20033;-54
2021/01/09 03:11:18;;;;;;;10.32;3.60;;;-1.80;99.90;;;;;;5011358;28;20055;-58
2021/01/09 03:13:53;;;;;;;4.95;2.67;;;-1.80;99.90;;;;;;5031226;28;20109;-55
2021/01/09 03:16:18;;;;;;;8.48;3.33;;;-1.80;99.90;;;;;;5012706;28;20045;-58
2021/01/09 03:18:44;;;;;;;7.22;2.75;;;-1.80;99.90;;;;;;5027906;28;20033;-58
2021/01/09 03:21:10;;;;;;;6.95;2.92;;;-1.70;99.90;;;;;;5011357;28;20111;-57
2021/01/09 03:23:36;;;;;;;8.25;3.22;;;-1.70;99.90;;;;;;5012615;28;20504;-58
2021/01/09 03:26:02;;;;;;;6.35;2.65;;;-1.80;99.90;;;;;;5030108;28;20060;-58
2021/01/09 03:28:27;;;;;;;8.10;3.47;;;-1.90;99.90;;;;;;5012913;28;20474;-57
2021/01/09 03:30:53;;;;;;;6.00;3.10;;;-2.00;99.90;;;;;;5012586;28;20039;-56
2021/01/09 03:33:19;;;;;;;6.15;3.10;;;-2.00;99.90;;;;;;5012681;28;20037;-59
2021/01/09 03:35:45;;;;;;;5.10;3.25;;;-2.00;99.90;;;;;;5030014;28;20431;-58
2021/01/09 03:38:11;;;;;;;8.35;3.55;;;-2.00;99.90;;;;;;5030408;28;20034;-58
2021/01/09 03:40:49;;;;;;;8.82;3.80;;;-2.10;99.90;;;;;;5015855;28;20099;-58
2021/01/09 03:43:14;;;;;;;9.07;3.45;;;-2.10;99.90;;;;;;5023694;28;20402;-59
2021/01/09 03:45:40;;;;;;;9.27;4.07;;;-2.00;99.90;;;;;;5012203;28;20044;-57
2021/01/09 03:48:07;;;;;;;10.68;3.90;;;-2.10;99.90;;;;;;5028336;28;20120;-57
2021/01/09 03:50:33;;;;;;;9.23;3.70;;;-2.10;99.90;;;;;;5012690;28;20042;-58
2021/01/09 03:52:58;;;;;;;6.07;3.17;;;-2.10;99.90;;;;;;5028892;28;20639;-57
2021/01/09 03:55:24;;;;;;;6.35;3.10;;;-2.10;99.90;;;;;;5014369;28;20351;-57
2021/01/09 03:57:50;;;;;;;8.38;3.95;;;-2.00;99.90;;;;;;5014749;28;20108;-57
2021/01/09 04:00:16;;;;;;;6.22;2.75;;;-2.00;99.90;;;;;;5010696;28;20236;-57
2021/01/09 04:02:42;;;;;;;7.28;3.45;;;-2.00;99.90;;;;;;5011680;28;20038;-58
2021/01/09 04:05:09;;;;;;;6.15;2.90;;;-2.00;99.90;;;;;;5021297;28;20484;-57
2021/01/09 04:07:34;;;;;;;10.30;3.28;;;-2.00;99.90;;;;;;5017930;28;20108;-57
2021/01/09 04:10:00;;;;;;;7.75;3.35;;;-2.10;99.90;;;;;;5023670;28;20125;-55
2021/01/09 04:12:26;;;;;;;9.73;4.20;;;-2.10;99.90;;;;;;5019856;28;20044;-56
2021/01/09 04:14:52;;;;;;;8.75;4.47;;;-2.20;99.90;;;;;;5010473;28;20057;-56
2021/01/09 04:17:18;;;;;;;11.20;4.78;;;-2.20;99.90;;;;;;5019370;28;20040;-55
2021/01/09 04:19:43;;;;;;;12.40;5.00;;;-2.20;99.90;;;;;;5029574;28;20045;-58
2021/01/09 04:22:09;;;;;;;12.93;6.13;;;-2.20;99.90;;;;;;5022161;28;20095;-58
2021/01/09 04:24:36;;;;;;;22.20;8.52;;;-2.20;99.90;;;;;;5010678;28;20056;-58
2021/01/09 04:27:03;;;;;;;20.70;8.10;;;-2.20;99.90;;;;;;5010248;28;20464;-58
2021/01/09 04:29:30;;;;;;;15.10;8.60;;;-2.30;99.90;;;;;;5019021;28;20033;-57
2021/01/09 04:31:57;;;;;;;20.92;9.27;;;-2.20;99.90;;;;;;5030200;28;20412;-58
2021/01/09 04:34:24;;;;;;;20.17;8.73;;;-2.30;99.90;;;;;;5016314;28;20037;-57
2021/01/09 04:36:51;;;;;;;18.15;7.43;;;-2.30;99.90;;;;;;5010254;28;20501;-58
2021/01/09 04:39:17;;;;;;;18.30;7.72;;;-2.40;99.90;;;;;;5010169;28;20049;-58
2021/01/09 04:41:43;;;;;;;13.40;6.43;;;-2.40;99.90;;;;;;5017527;28;20397;-58
2021/01/09 04:44:11;;;;;;;13.57;5.80;;;-2.40;99.90;;;;;;5029878;28;20036;-56
2021/01/09 04:46:59;;;;;;;12.70;6.70;;;-2.40;99.90;;;;;;5027689;28;20076;-57
2021/01/09 04:49:26;;;;;;;15.38;7.60;;;-2.30;99.90;;;;;;5020122;28;20033;-55
2021/01/09 04:51:54;;;;;;;12.13;6.63;;;-2.30;99.90;;;;;;5025829;28;20026;-58
2021/01/09 04:54:24;;;;;;;17.42;7.32;;;-2.30;99.90;;;;;;5029382;28;20099;-58
2021/01/09 04:56:52;;;;;;;11.40;6.38;;;-2.30;99.90;;;;;;5011231;28;20029;-57
2021/01/09 04:59:20;;;;;;;13.32;6.25;;;-2.20;99.90;;;;;;5018130;28;20076;-57
2021/01/09 05:01:47;;;;;;;13.70;6.45;;;-2.30;99.90;;;;;;5016091;28;20109;-56
2021/01/09 05:04:14;;;;;;;15.95;7.88;;;-2.30;99.90;;;;;;5022321;28;20045;-58
2021/01/09 05:06:41;;;;;;;12.15;6.25;;;-2.30;99.90;;;;;;5009519;28;20160;-57
2021/01/09 05:09:08;;;;;;;11.32;5.75;;;-2.30;99.90;;;;;;5027195;28;20323;-58
2021/01/09 05:11:35;;;;;;;17.73;7.63;;;-2.30;99.90;;;;;;5029383;28;20112;-56
2021/01/09 05:14:04;;;;;;;15.95;8.20;;;-2.40;99.90;;;;;;5010453;28;20497;-56
2021/01/09 05:16:30;;;;;;;17.88;10.10;;;-2.40;99.90;;;;;;5009467;28;20029;-56
2021/01/09 05:18:56;;;;;;;21.13;9.07;;;-2.40;99.90;;;;;;5021151;28;20127;-58
2021/01/09 05:21:22;;;;;;;15.15;7.45;;;-2.50;99.90;;;;;;5022688;28;20069;-57
2021/01/09 05:23:55;;;;;;;16.75;6.85;;;-2.40;99.90;;;;;;5029225;28;20357;-56
2021/01/09 05:26:22;;;;;;;21.80;10.75;;;-2.30;99.90;;;;;;5015172;28;20087;-57
2021/01/09 05:28:50;;;;;;;16.75;9.13;;;-2.30;99.90;;;;;;5024853;28;20033;-57
2021/01/09 05:31:17;;;;;;;10.65;4.93;;;-2.30;99.90;;;;;;5008906;28;20147;-56
2021/01/09 05:33:43;;;;;;;11.18;5.45;;;-2.20;99.90;;;;;;5011019;28;20506;-58
2021/01/09 05:36:10;;;;;;;9.85;4.68;;;-2.20;99.90;;;;;;5028881;28;20060;-57
2021/01/09 05:38:41;;;;;;;12.70;6.85;;;-2.30;99.90;;;;;;5026634;28;20099;-59
2021/01/09 05:41:09;;;;;;;11.90;6.50;;;-2.40;99.90;;;;;;5009626;28;20038;-56
2021/01/09 05:43:35;;;;;;;10.45;5.18;;;-2.40;99.90;;;;;;5014295;28;20053;-59
2021/01/09 05:46:03;;;;;;;12.15;5.63;;;-2.40;99.90;;;;;;5028584;28;20037;-58
2021/01/09 05:48:30;;;;;;;13.07;6.07;;;-2.40;99.90;;;;;;5023512;28;20034;-56
2021/01/09 05:50:58;;;;;;;7.88;4.25;;;-2.50;99.90;;;;;;5008943;28;20252;-57
2021/01/09 05:53:46;;;;;;;9.95;4.65;;;-2.50;99.90;;;;;;5009796;28;20041;-55
2021/01/09 05:56:15;;;;;;;9.43;4.88;;;-2.60;99.90;;;;;;5008781;28;20041;-63
2021/01/09 05:58:41;;;;;;;9.30;4.20;;;-2.60;99.90;;;;;;5027800;28;20021;-58
2021/01/09 06:01:12;;;;;;;10.15;5.22;;;-2.60;99.90;;;;;;5028547;28;20025;-56
2021/01/09 06:03:42;;;;;;;10.88;5.80;;;-2.60;99.90;;;;;;5009892;28;20061;-55
2021/01/09 06:06:27;;;;;;;10.02;5.60;;;-2.60;99.90;;;;;;5017713;28;20037;-60
2021/01/09 06:09:17;;;;;;;9.40;5.72;;;-2.60;99.90;;;;;;5021727;28;20117;-54
2021/01/09 06:11:43;;;;;;;14.00;5.93;;;-2.60;99.90;;;;;;5004681;28;20038;-57
2021/01/09 06:14:13;;;;;;;10.27;4.82;;;-2.50;99.90;;;;;;5020464;28;20037;-57
2021/01/09 06:16:41;;;;;;;8.00;4.68;;;-2.50;99.90;;;;;;5012582;28;20473;-59
2021/01/09 06:19:08;;;;;;;10.05;5.18;;;-2.40;99.90;;;;;;5025801;28;20044;-57
2021/01/09 06:21:35;;;;;;;11.10;5.15;;;-2.40;99.90;;;;;;5024865;28;20117;-58
2021/01/09 06:24:05;;;;;;;9.57;5.40;;;-2.40;99.90;;;;;;5024617;28;20493;-58
2021/01/09 06:26:33;;;;;;;15.00;8.27;;;-2.40;99.90;;;;;;5012585;28;20405;-58
2021/01/09 06:29:24;;;;;;;17.92;8.27;;;-2.40;99.90;;;;;;5021299;28;20060;-57
2021/01/09 06:31:55;;;;;;;20.27;8.50;;;-2.40;99.90;;;;;;5001675;28;20485;-57
2021/01/09 06:34:24;;;;;;;13.80;6.85;;;-2.40;99.90;;;;;;5012725;28;20030;-57
2021/01/09 06:37:03;;;;;;;15.32;7.40;;;-2.40;99.90;;;;;;5012525;28;20034;-56
2021/01/09 06:39:35;;;;;;;14.80;7.20;;;-2.30;99.90;;;;;;5012838;28;20038;-58
2021/01/09 06:42:04;;;;;;;11.93;6.10;;;-2.10;99.90;;;;;;5012628;28;20060;-57
2021/01/09 06:44:31;;;;;;;13.30;6.22;;;-2.00;99.90;;;;;;5013289;28;20139;-57
2021/01/09 06:46:57;;;;;;;9.48;4.68;;;-2.00;99.90;;;;;;5028476;28;20087;-56
2021/01/09 06:49:25;;;;;;;10.27;5.13;;;-1.90;99.90;;;;;;5015613;28;20077;-57
2021/01/09 06:51:55;;;;;;;10.23;4.88;;;-1.90;99.90;;;;;;5012006;28;20040;-58
2021/01/09 06:54:30;;;;;;;10.93;5.22;;;-1.90;99.90;;;;;;5029027;28;20700;-56
2021/01/09 06:57:05;;;;;;;10.40;5.72;;;-1.90;99.90;;;;;;5020930;28;20642;-58
2021/01/09 07:00:15;;;;;;;10.65;5.10;;;-1.90;99.90;;;;;;5020736;28;20111;-58
2021/01/09 07:02:41;;;;;;;11.38;5.78;;;-1.90;99.90;;;;;;5003833;28;20049;-58
2021/01/09 07:05:19;;;;;;;14.20;5.35;;;-1.90;99.90;;;;;;5027458;28;20033;-59
2021/01/09 07:07:52;;;;;;;8.40;5.28;;;-1.90;99.90;;;;;;5028257;28;20056;-57
2021/01/09 07:10:24;;;;;;;12.80;4.30;;;-1.80;99.90;;;;;;5011637;28;20044;-57
2021/01/09 07:13:06;;;;;;;7.25;3.70;;;-1.80;99.90;;;;;;5020980;28;20141;-58
2021/01/09 07:15:35;;;;;;;6.60;3.92;;;-1.60;99.90;;;;;;5031555;28;20033;-57
2021/01/09 07:18:04;;;;;;;9.57;4.63;;;-1.60;99.90;;;;;;5021740;28;20036;-59
2021/01/09 07:20:38;;;;;;;17.23;5.65;;;-1.60;99.90;;;;;;5011718;28;20459;-58
2021/01/09 07:23:09;;;;;;;9.45;5.03;;;-1.60;99.90;;;;;;5024755;28;20067;-59
2021/01/09 07:25:40;;;;;;;5.57;2.58;;;-1.20;99.90;;;;;;5008214;28;20034;-58
2021/01/09 07:28:14;;;;;;;4.93;1.73;;;-0.70;99.90;;;;;;5010128;28;20559;-58
2021/01/09 07:30:41;;;;;;;4.55;1.65;;;-0.20;99.90;;;;;;5012162;28;20112;-58
2021/01/09 07:33:12;;;;;;;5.85;1.83;;;0.50;99.90;;;;;;5015263;28;20061;-58
2021/01/09 07:35:43;;;;;;;3.90;1.65;;;1.00;99.90;;;;;;5011156;28;20159;-59
2021/01/09 07:38:10;;;;;;;4.25;1.30;;;1.60;97.30;;;;;;5012884;28;20025;-59
2021/01/09 07:40:45;;;;;;;7.05;3.50;;;1.60;99.90;;;;;;5014510;28;20556;-60
2021/01/09 07:43:43;;;;;;;10.80;5.03;;;1.30;99.90;;;;;;5030443;28;20057;-59
2021/01/09 07:46:27;;;;;;;7.28;4.43;;;0.70;99.90;;;;;;5012973;28;20524;-60
2021/01/09 07:48:57;;;;;;;8.57;4.03;;;0.30;99.90;;;;;;5015081;28;20095;-59
2021/01/09 07:51:52;;;;;;;6.40;4.05;;;0.00;99.90;;;;;;5029473;28;20052;-60
2021/01/09 07:54:47;;;;;;;15.68;6.90;;;-0.20;99.90;;;;;;5023660;28;20129;-59
2021/01/09 07:57:20;;;;;;;14.50;6.55;;;-0.40;99.90;;;;;;4977152;28;20397;-59
2021/01/09 08:00:06;;;;;;;12.30;5.72;;;-0.50;99.90;;;;;;5030010;28;20033;-60
2021/01/09 08:02:33;;;;;;;10.60;5.75;;;-0.40;99.90;;;;;;5015949;28;20042;-59
2021/01/09 08:05:06;;;;;;;13.63;5.55;;;-0.40;99.90;;;;;;5010774;28;20034;-59
2021/01/09 08:07:44;;;;;;;11.10;5.07;;;-0.40;99.90;;;;;;5030307;28;20037;-58
2021/01/09 08:10:19;;;;;;;16.65;6.95;;;-0.40;99.90;;;;;;5013696;28;20037;-59
2021/01/09 08:12:51;;;;;;;16.67;8.35;;;-0.40;99.90;;;;;;5010517;28;20040;-61
2021/01/09 08:15:16;;;;;;;20.67;8.45;;;-0.30;99.90;;;;;;5010722;28;20041;-59
2021/01/09 08:17:42;;;;;;;14.35;6.45;;;-0.30;99.90;;;;;;5010289;28;20026;-59
2021/01/09 08:20:10;;;;;;;15.43;7.82;;;-0.30;99.90;;;;;;5025981;28;20038;-60
2021/01/09 08:22:52;;;;;;;61.00;25.40;;;-0.30;99.90;;;;;;5028180;28;20041;-59
2021/01/09 08:25:19;;;;;;;29.10;14.10;;;-0.20;99.90;;;;;;5029346;28;20382;-59
2021/01/09 08:27:53;;;;;;;25.85;12.57;;;-0.10;99.90;;;;;;5016347;28;20195;-60
2021/01/09 08:30:29;;;;;;;24.02;10.82;;;0.00;99.90;;;;;;5011280;28;20462;-60
2021/01/09 08:33:09;;;;;;;18.65;8.23;;;0.00;99.90;;;;;;5029430;28;20037;-61
2021/01/09 08:35:47;;;;;;;14.13;7.03;;;0.10;99.90;;;;;;5028324;28;20040;-59
2021/01/09 08:38:14;;;;;;;11.15;6.07;;;0.10;99.90;;;;;;5020068;28;20164;-59
2021/01/09 08:40:42;;;;;;;10.88;5.72;;;0.10;99.90;;;;;;5029698;28;20520;-59
2021/01/09 08:43:09;;;;;;;14.98;6.75;;;0.20;99.90;;;;;;5025790;28;20122;-60
2021/01/09 08:45:46;;;;;;;18.52;8.02;;;0.30;99.90;;;;;;5025498;28;20188;-60
2021/01/09 08:48:18;;;;;;;23.83;10.82;;;0.40;99.90;;;;;;5021374;28;20060;-60
2021/01/09 08:51:02;;;;;;;30.90;12.23;;;0.50;99.90;;;;;;5029618;28;20129;-60
2021/01/09 08:54:00;;;;;;;23.30;9.05;;;0.60;99.90;;;;;;5027729;28;20034;-60
2021/01/09 08:56:27;;;;;;;22.00;9.98;;;0.80;99.90;;;;;;5019626;28;20053;-60
2021/01/09 08:58:53;;;;;;;19.70;9.38;;;0.90;99.90;;;;;;5027378;28;20493;-60
2021/01/09 09:01:25;;;;;;;7.80;3.85;;;1.00;99.90;;;;;;5013853;28;20041;-60
2021/01/09 09:03:57;;;;;;;5.18;1.83;;;1.40;99.90;;;;;;5029403;28;20500;-60
2021/01/09 09:06:25;;;;;;;9.40;3.75;;;1.90;99.90;;;;;;5011004;28;20474;-60
2021/01/09 09:08:53;;;;;;;10.10;3.97;;;1.90;99.90;;;;;;5014008;28;20052;-60
2021/01/09 09:11:23;;;;;;;4.95;1.75;;;1.80;99.90;;;;;;5016150;28;20031;-60
2021/01/09 09:14:06;;;;;;;5.78;2.22;;;1.90;99.90;;;;;;5029599;28;20037;-60
2021/01/09 09:16:33;;;;;;;5.95;2.78;;;1.90;99.90;;;;;;5021153;28;20548;-60
2021/01/09 09:19:12;;;;;;;6.70;4.32;;;1.80;99.90;;;;;;5009322;28;20061;-60
2021/01/09 09:21:45;;;;;;;6.60;3.58;;;1.90;99.90;;;;;;5026071;28;20100;-60
2021/01/09 09:24:12;;;;;;;14.43;6.65;;;1.90;99.90;;;;;;5020892;28;20045;-60
2021/01/09 09:26:39;;;;;;;14.68;7.65;;;1.80;99.90;;;;;;5025051;28;20427;-60
2021/01/09 09:29:05;;;;;;;19.42;9.75;;;1.80;99.90;;;;;;5026587;28;20524;-60
2021/01/09 09:31:33;;;;;;;16.58;8.80;;;1.70;99.90;;;;;;5022102;28;20047;-60
2021/01/09 09:34:08;;;;;;;17.05;8.85;;;1.70;99.90;;;;;;5019786;28;20623;-61
2021/01/09 09:36:41;;;;;;;17.63;9.02;;;1.80;99.90;;;;;;5028204;28;20440;-59
2021/01/09 09:39:19;;;;;;;20.08;9.95;;;1.90;99.90;;;;;;5014852;28;20592;-60
2021/01/09 09:42:01;;;;;;;15.25;7.60;;;1.90;99.90;;;;;;5026756;28;20232;-60
2021/01/09 09:44:40;;;;;;;5.45;1.92;;;2.00;99.90;;;;;;5026206;28;20037;-60
2021/01/09 09:47:11;;;;;;;3.08;1.30;;;2.30;97.60;;;;;;5025391;28;20182;-60
2021/01/09 09:49:42;;;;;;;10.23;3.58;;;2.90;93.30;;;;;;5010389;28;20067;-60
2021/01/09 09:52:21;;;;;;;8.32;4.03;;;3.00;99.90;;;;;;5036187;28;20037;-59
2021/01/09 09:55:03;;;;;;;9.02;4.50;;;3.00;99.90;;;;;;5007153;28;20034;-60
2021/01/09 09:57:28;;;;;;;7.13;3.97;;;2.90;99.90;;;;;;5018947;28;20148;-59
2021/01/09 10:00:07;;;;;;;6.10;3.15;;;2.80;99.90;;;;;;5022767;28;20568;-59
2021/01/09 10:02:34;;;;;;;7.63;4.07;;;2.70;99.90;;;;;;5018277;28;20029;-60
2021/01/09 10:05:10;;;;;;;9.23;4.63;;;2.70;99.90;;;;;;5026186;28;20394;-59
2021/01/09 10:07:36;;;;;;;8.93;4.90;;;2.80;99.90;;;;;;5025106;28;20041;-61
2021/01/09 10:10:21;;;;;;;7.97;5.07;;;2.80;99.90;;;;;;5026161;28;20044;-60
2021/01/09 10:12:57;;;;;;;6.32;3.35;;;2.80;99.90;;;;;;5018579;28;20113;-60
2021/01/09 10:15:24;;;;;;;11.02;3.75;;;2.90;99.90;;;;;;5023647;28;20037;-60
2021/01/09 10:17:54;;;;;;;4.82;2.45;;;3.00;99.90;;;;;;5024985;28;20029;-60
2021/01/09 10:20:20;;;;;;;7.07;3.28;;;3.10;99.90;;;;;;5023790;28;20025;-60
2021/01/09 10:22:46;;;;;;;7.85;3.30;;;3.20;99.90;;;;;;5022747;28;20064;-60
2021/01/09 10:25:12;;;;;;;4.75;3.05;;;3.30;99.90;;;;;;5019969;28;20129;-60
2021/01/09 10:27:37;;;;;;;4.13;2.00;;;3.40;99.90;;;;;;5019533;28;20381;-61
2021/01/09 10:30:05;;;;;;;4.80;1.55;;;3.50;99.30;;;;;;5015818;28;20034;-59
2021/01/09 10:32:30;;;;;;;3.90;1.10;;;3.80;98.20;;;;;;5021213;28;20037;-60
2021/01/09 10:34:56;;;;;;;3.13;1.30;;;3.90;97.50;;;;;;5022413;28;20040;-60
2021/01/09 10:37:22;;;;;;;2.60;1.33;;;3.90;96.30;;;;;;5026057;28;20500;-60
2021/01/09 10:39:48;;;;;;;2.95;1.77;;;4.00;96.00;;;;;;5017515;28;20103;-60
2021/01/09 10:42:14;;;;;;;3.47;1.17;;;4.00;96.20;;;;;;5022397;28;20057;-60
2021/01/09 10:44:40;;;;;;;2.17;0.57;;;4.10;94.70;;;;;;5020333;28;20068;-60
2021/01/09 10:47:06;;;;;;;3.58;1.27;;;4.20;95.00;;;;;;5019580;28;20069;-58
2021/01/09 10:49:32;;;;;;;3.10;0.90;;;4.10;93.00;;;;;;5017266;28;20493;-60
2021/01/09 10:51:59;;;;;;;4.07;0.88;;;4.40;92.30;;;;;;5020924;28;20385;-60
2021/01/09 10:54:24;;;;;;;3.20;0.80;;;4.50;91.90;;;;;;5025267;28;20589;-60
2021/01/09 10:56:50;;;;;;;2.38;1.08;;;4.60;90.30;;;;;;5012000;28;20072;-60
2021/01/09 10:59:16;;;;;;;1.95;0.90;;;4.60;89.20;;;;;;5024091;28;20060;-60
2021/01/09 11:01:42;;;;;;;2.40;0.80;;;4.70;91.10;;;;;;5025950;28;20040;-60
2021/01/09 11:04:07;;;;;;;2.20;1.05;;;4.90;89.50;;;;;;5025088;28;20033;-60
2021/01/09 11:06:33;;;;;;;2.65;1.35;;;4.80;89.90;;;;;;5027392;28;20038;-60
2021/01/09 11:08:59;;;;;;;2.70;1.23;;;4.90;91.50;;;;;;5028977;28;20048;-60
2021/01/09 11:11:25;;;;;;;1.67;0.82;;;5.00;90.10;;;;;;5029345;28;20122;-60
2021/01/09 11:13:51;;;;;;;2.28;0.70;;;5.00;88.80;;;;;;5023100;28;20083;-60
2021/01/09 11:16:24;;;;;;;1.90;0.80;;;5.00;89.70;;;;;;5028043;28;20036;-60
2021/01/09 11:18:50;;;;;;;2.25;0.77;;;4.90;86.50;;;;;;5027637;28;20030;-61
2021/01/09 11:21:17;;;;;;;1.48;0.65;;;5.00;90.90;;;;;;5033606;28;20176;-60
2021/01/09 11:23:43;;;;;;;4.57;1.25;;;4.90;84.60;;;;;;5015117;28;20452;-61
2021/01/09 11:26:11;;;;;;;4.88;0.80;;;5.10;82.80;;;;;;5023822;28;20457;-60
2021/01/09 11:28:37;;;;;;;5.00;0.88;;;5.30;80.50;;;;;;5014212;28;20492;-60
2021/01/09 11:31:03;;;;;;;3.72;1.23;;;5.50;71.30;;;;;;5028571;28;20087;-60
2021/01/09 11:33:29;;;;;;;2.85;0.85;;;5.60;70.80;;;;;;5026162;28;20068;-60
2021/01/09 11:35:54;;;;;;;1.33;0.50;;;5.60;68.70;;;;;;5030390;28;20103;-60
2021/01/09 11:38:21;;;;;;;6.57;1.88;;;5.60;68.40;;;;;;5029137;28;20091;-60
2021/01/09 11:40:48;;;;;;;0.93;0.30;;;5.60;67.90;;;;;;5030965;28;20045;-60
2021/01/09 11:43:14;;;;;;;1.48;0.55;;;5.50;67.70;;;;;;5028080;28;20103;-60
2021/01/09 11:45:41;;;;;;;1.48;0.40;;;5.40;66.70;;;;;;5028102;28;20049;-59
2021/01/09 11:48:07;;;;;;;1.08;0.50;;;5.50;65.90;;;;;;5030031;28;20052;-60
2021/01/09 11:50:33;;;;;;;1.23;0.32;;;5.60;66.80;;;;;;5030844;28;20021;-60
2021/01/09 11:52:59;;;;;;;2.08;0.35;;;5.50;67.70;;;;;;5029265;28;20104;-57
2021/01/09 11:55:24;;;;;;;1.85;0.30;;;5.50;67.80;;;;;;5027993;28;20045;-59
2021/01/09 11:57:50;;;;;;;0.82;0.20;;;5.60;66.50;;;;;;5023330;28;20033;-60
2021/01/09 12:00:16;;;;;;;2.00;0.60;;;5.60;69.70;;;;;;5030156;28;20120;-61
2021/01/09 12:02:42;;;;;;;2.10;0.80;;;5.70;68.20;;;;;;5003152;28;20029;-60
2021/01/09 12:05:09;;;;;;;1.05;0.45;;;5.60;67.50;;;;;;5024956;28;20044;-60
2021/01/09 12:07:35;;;;;;;2.13;0.88;;;5.60;67.80;;;;;;5025679;28;20505;-60
2021/01/09 12:10:03;;;;;;;1.17;0.52;;;5.50;70.70;;;;;;5019828;28;20025;-60
2021/01/09 12:12:28;;;;;;;1.33;0.43;;;5.50;69.30;;;;;;5020616;28;20029;-61
2021/01/09 12:14:54;;;;;;;1.20;0.30;;;5.50;69.70;;;;;;5030201;28;20405;-60
2021/01/09 12:17:20;;;;;;;1.05;0.45;;;5.50;68.80;;;;;;5028627;28;20489;-60
2021/01/09 12:19:46;;;;;;;1.85;0.30;;;5.70;67.30;;;;;;5022119;28;20112;-60
2021/01/09 12:22:11;;;;;;;2.90;0.43;;;5.80;67.90;;;;;;5029221;28;20072;-60
2021/01/09 12:24:37;;;;;;;0.63;0.25;;;5.70;68.60;;;;;;5028528;28;20053;-62
2021/01/09 12:27:03;;;;;;;2.72;0.43;;;5.60;69.60;;;;;;5029382;28;20041;-60
2021/01/09 12:29:29;;;;;;;1.33;0.50;;;5.60;68.00;;;;;;5026866;28;20114;-61
2021/01/09 12:31:55;;;;;;;1.30;0.30;;;5.60;67.60;;;;;;5028198;28;20029;-60
2021/01/09 12:34:20;;;;;;;0.77;0.40;;;5.70;68.40;;;;;;5026267;28;20035;-60
2021/01/09 12:36:51;;;;;;;1.42;0.45;;;5.60;67.00;;;;;;5028420;28;20456;-60
2021/01/09 12:39:17;;;;;;;1.08;0.40;;;5.60;68.00;;;;;;5030129;28;20068;-60
2021/01/09 12:41:43;;;;;;;1.77;0.43;;;5.60;67.40;;;;;;5025459;28;20079;-61
2021/01/09 12:44:10;;;;;;;1.77;0.40;;;5.70;69.10;;;;;;5039168;28;20477;-60
2021/01/09 12:46:42;;;;;;;1.52;0.60;;;5.70;70.30;;;;;;5029719;28;20044;-59
2021/01/09 12:49:10;;;;;;;1.20;0.40;;;5.60;68.50;;;;;;5029600;28;20060;-60
2021/01/09 12:51:35;;;;;;;1.25;0.50;;;5.50;67.20;;;;;;5029964;28;20060;-60
2021/01/09 12:54:02;;;;;;;1.67;0.50;;;5.50;69.60;;;;;;5026316;28;20034;-61
2021/01/09 12:56:30;;;;;;;1.70;0.50;;;5.40;71.10;;;;;;5024422;28;20132;-62